Time;durP1;ratioP1;P1;durP2;ratioP2;P2;SDS_P1;SDS_P2;PMS_P1;PMS_P2;Temp;Humidity;BMP_temperature;BMP_pressure;BME280_temperature;BME280_humidity;BME280_pressure;Samples;Min_cycle;Max_cycle;Signal;HPM_P1;HPM_P2
2022/03/18 00:01:07;;;;;;;59.17;43.37;;;;;;;4.84;100.00;95935.41;5024872;28;20203;-61
2022/03/18 00:03:53;;;;;;;59.13;43.77;;;;;;;4.71;100.00;95945.16;5047846;28;20204;-62
2022/03/18 00:06:39;;;;;;;58.73;45.47;;;;;;;4.49;100.00;95946.41;5044640;28;20606;-62
2022/03/18 00:09:25;;;;;;;59.03;43.57;;;;;;;4.56;100.00;95949.09;5040329;28;20215;-62
2022/03/18 00:12:12;;;;;;;57.93;44.13;;;;;;;4.72;100.00;95941.28;5067760;28;20281;-61
2022/03/18 00:14:58;;;;;;;58.47;44.33;;;;;;;4.84;100.00;95959.78;5043206;28;20187;-61
2022/03/18 00:17:44;;;;;;;61.50;46.03;;;;;;;4.76;100.00;95945.53;5032510;28;20339;-61
2022/03/18 00:20:30;;;;;;;61.77;44.73;;;;;;;4.68;100.00;95941.28;5046078;28;20288;-61
2022/03/18 00:23:16;;;;;;;56.33;43.60;;;;;;;4.69;100.00;95942.84;5046202;28;20257;-61
2022/03/18 00:26:02;;;;;;;58.50;43.37;;;;;;;4.62;100.00;95936.69;5045850;28;20247;-62
2022/03/18 00:28:48;;;;;;;60.37;43.87;;;;;;;4.71;100.00;95943.25;5045985;28;20198;-61
2022/03/18 00:31:34;;;;;;;62.30;46.43;;;;;;;4.56;100.00;95951.81;5033676;28;20209;-61
2022/03/18 00:34:20;;;;;;;63.30;43.87;;;;;;;4.77;100.00;95943.56;5047996;28;20191;-61
2022/03/18 00:37:07;;;;;;;64.03;43.87;;;;;;;4.75;100.00;95962.91;5040946;28;20599;-61
2022/03/18 00:39:52;;;;;;;67.00;46.53;;;;;;;4.77;100.00;95954.41;5033938;28;20248;-61
2022/03/18 00:42:38;;;;;;;62.53;45.63;;;;;;;4.83;100.00;95953.63;5047447;28;20217;-62
2022/03/18 00:45:24;;;;;;;60.23;45.43;;;;;;;4.82;100.00;95965.59;5037788;28;20226;-61
2022/03/18 00:54:19;;;;;;;71.63;49.13;;;;;;;4.60;100.00;95955.25;5039858;28;20203;-62
2022/03/18 00:57:05;;;;;;;92.50;61.07;;;;;;;4.77;100.00;95955.19;5031742;28;20769;-63
2022/03/18 00:59:51;;;;;;;69.63;50.60;;;;;;;4.59;100.00;95959.91;5043315;28;20218;-62
2022/03/18 01:02:37;;;;;;;74.77;52.27;;;;;;;4.52;100.00;95951.81;5036921;28;20234;-61
2022/03/18 01:05:23;;;;;;;62.23;47.27;;;;;;;4.66;100.00;95950.97;5052149;28;20653;-62
2022/03/18 01:08:08;;;;;;;60.50;44.30;;;;;;;4.63;100.00;95959.88;5032509;28;20212;-62
2022/03/18 01:10:55;;;;;;;57.60;44.07;;;;;;;4.47;100.00;95965.75;5031860;28;20308;-61
2022/03/18 01:13:41;;;;;;;59.80;45.77;;;;;;;4.59;100.00;95968.03;5037516;28;20190;-61
2022/03/18 01:16:26;;;;;;;61.53;45.67;;;;;;;4.70;100.00;95960.63;5046086;28;20337;-62
2022/03/18 01:19:12;;;;;;;59.50;44.77;;;;;;;4.78;100.00;95953.25;5051023;28;20218;-62
2022/03/18 01:21:59;;;;;;;68.77;46.57;;;;;;;4.74;100.00;95964.09;5045036;28;20198;-61
2022/03/18 01:24:45;;;;;;;62.53;44.23;;;;;;;4.78;100.00;95953.25;5050277;28;20201;-61
2022/03/18 01:27:31;;;;;;;62.30;44.10;;;;;;;4.88;100.00;95958.63;5025319;28;20286;-61
2022/03/18 01:30:17;;;;;;;62.00;43.50;;;;;;;4.65;100.00;95961.03;5039274;28;20707;-61
2022/03/18 01:33:03;;;;;;;55.73;43.20;;;;;;;4.43;100.00;95962.25;5048367;28;20676;-62
2022/03/18 01:35:49;;;;;;;60.47;44.33;;;;;;;4.48;100.00;95961.13;5030399;28;20226;-61
2022/03/18 01:38:35;;;;;;;56.10;41.93;;;;;;;4.33;100.00;95956.88;5051391;28;20197;-61
2022/03/18 01:41:21;;;;;;;57.07;42.83;;;;;;;4.40;100.00;95962.28;5049500;28;20234;-61
2022/03/18 01:44:11;;;;;;;57.60;43.23;;;;;;;4.47;100.00;95964.97;5030058;28;20593;-62
2022/03/18 01:46:57;;;;;;;59.00;41.90;;;;;;;4.26;100.00;95962.34;5042228;28;20186;-62
2022/03/18 01:49:43;;;;;;;57.23;44.00;;;;;;;4.35;100.00;95954.56;5048990;28;20233;-62
2022/03/18 01:52:29;;;;;;;66.13;46.17;;;;;;;4.14;100.00;95960.03;5033590;28;20206;-62
2022/03/18 01:55:17;;;;;;;60.77;46.27;;;;;;;4.58;100.00;95960.28;5049478;28;20202;-61
2022/03/18 01:58:04;;;;;;;60.57;45.90;;;;;;;4.46;100.00;95969.59;5028782;28;20245;-61
2022/03/18 02:00:49;;;;;;;62.07;44.30;;;;;;;4.59;100.00;95965.31;5026688;28;20328;-61
2022/03/18 02:03:36;;;;;;;62.30;44.90;;;;;;;4.53;100.00;95968.81;5027808;28;20276;-61
2022/03/18 02:06:23;;;;;;;55.37;42.37;;;;;;;4.42;100.00;95960.75;5028916;28;20206;-61
2022/03/18 02:09:09;;;;;;;61.87;45.07;;;;;;;4.56;100.00;95960.69;5044134;28;20601;-62
2022/03/18 02:11:55;;;;;;;63.70;45.53;;;;;;;4.66;100.00;95976.13;5037977;28;20190;-61
2022/03/18 02:14:46;;;;;;;58.20;44.17;;;;;;;4.52;100.00;95972.66;5056048;28;20201;-61
2022/03/18 02:17:32;;;;;;;59.33;43.43;;;;;;;4.53;100.00;95972.28;5049051;28;20245;-61
2022/03/18 02:20:18;;;;;;;64.03;47.20;;;;;;;4.50;100.00;95978.47;5043763;28;20221;-61
2022/03/18 02:23:04;;;;;;;64.63;47.00;;;;;;;4.71;100.00;95972.22;5035944;28;20269;-61
2022/03/18 02:25:50;;;;;;;63.00;44.23;;;;;;;4.53;100.00;95972.28;5048569;28;20184;-61
2022/03/18 02:28:36;;;;;;;59.73;46.27;;;;;;;4.68;100.00;95970.31;5029092;28;20263;-62
2022/03/18 02:31:22;;;;;;;55.40;43.03;;;;;;;4.58;100.00;95980.00;5045785;28;20273;-62
2022/03/18 02:34:08;;;;;;;60.70;43.53;;;;;;;4.58;100.00;95977.28;5034727;28;20194;-61
2022/03/18 02:36:55;;;;;;;56.47;43.50;;;;;;;4.52;100.00;95973.44;5044164;28;20290;-61
2022/03/18 02:39:41;;;;;;;60.03;44.17;;;;;;;4.56;100.00;95973.44;5041733;28;20550;-61
2022/03/18 02:42:27;;;;;;;56.57;42.33;;;;;;;4.48;100.00;95974.63;5036642;28;20245;-61
2022/03/18 02:45:13;;;;;;;58.30;44.53;;;;;;;4.47;100.00;95976.56;5038035;28;20195;-61
2022/03/18 02:47:58;;;;;;;55.63;42.00;;;;;;;4.63;100.00;95976.13;5040759;28;20195;-61
2022/03/18 02:50:44;;;;;;;58.77;41.20;;;;;;;4.35;100.00;95966.16;5043881;28;20313;-61
2022/03/18 02:53:30;;;;;;;55.43;42.37;;;;;;;4.40;100.00;95973.88;5048753;28;20661;-62
2022/03/18 02:56:16;;;;;;;61.40;42.90;;;;;;;4.14;100.00;95973.56;5033987;28;20312;-61
2022/03/18 02:59:03;;;;;;;55.33;42.90;;;;;;;4.28;100.00;95977.00;5048438;28;20241;-62
2022/03/18 03:01:49;;;;;;;59.80;43.23;;;;;;;4.10;100.00;95961.97;5049148;28;20206;-61
2022/03/18 03:07:58;;;;;;;59.17;43.00;;;;;;;3.91;100.00;95973.97;5043808;28;20196;-61
2022/03/18 03:07:59;;;;;;;61.50;44.20;;;;;;;3.97;100.00;95972.41;5043496;28;20199;-61
2022/03/18 03:10:45;;;;;;;57.47;42.07;;;;;;;4.02;100.00;95973.97;5048764;28;20225;-62
2022/03/18 03:13:32;;;;;;;57.70;42.17;;;;;;;4.08;100.00;95975.88;5039989;28;20580;-61
2022/03/18 03:16:21;;;;;;;57.63;43.37;;;;;;;3.99;100.00;95974.75;5042447;28;20214;-61
2022/03/18 03:19:07;;;;;;;61.63;43.60;;;;;;;3.88;100.00;95988.25;5027936;28;20238;-62
2022/03/18 03:21:53;;;;;;;57.43;42.07;;;;;;;4.03;100.00;95984.38;5033745;28;20206;-61
2022/03/18 03:24:39;;;;;;;60.00;44.67;;;;;;;4.26;100.00;95992.81;5047448;28;20194;-62
2022/03/18 03:27:29;;;;;;;62.23;44.93;;;;;;;4.29;100.00;95988.59;5048560;28;20190;-61
2022/03/18 03:30:15;;;;;;;58.37;44.83;;;;;;;4.15;100.00;95989.38;5045652;28;20217;-62
2022/03/18 03:33:01;;;;;;;61.27;44.30;;;;;;;3.99;100.00;96007.19;5040819;28;20666;-62
2022/03/18 03:35:47;;;;;;;56.80;41.93;;;;;;;3.69;100.00;96005.63;5051181;28;20214;-61
2022/03/18 03:38:34;;;;;;;67.00;43.53;;;;;;;3.71;100.00;96005.25;5040420;28;20560;-61
2022/03/18 03:41:21;;;;;;;62.27;44.30;;;;;;;3.84;100.00;96005.63;5042968;28;20235;-61
2022/03/18 03:44:07;;;;;;;57.27;42.73;;;;;;;3.70;100.00;96019.91;5048377;28;20194;-61
2022/03/18 03:46:53;;;;;;;60.53;43.07;;;;;;;3.50;100.00;96019.50;5048191;28;20249;-61
2022/03/18 03:49:39;;;;;;;58.23;41.47;;;;;;;3.43;100.00;96010.63;5047729;28;20221;-61
2022/03/18 03:52:25;;;;;;;61.87;43.07;;;;;;;3.34;100.00;96023.72;5029602;28;20202;-61
2022/03/18 03:55:13;;;;;;;65.60;42.43;;;;;;;3.26;100.00;96020.22;5040232;28;20199;-61
2022/03/18 03:57:59;;;;;;;57.60;42.67;;;;;;;3.40;100.00;96019.50;5030102;28;20190;-61
2022/03/18 04:00:45;;;;;;;58.30;42.27;;;;;;;3.22;100.00;96024.09;5051902;28;20249;-61
2022/03/18 04:03:31;;;;;;;60.90;43.27;;;;;;;3.39;100.00;96016.00;5045347;28;20622;-61
2022/03/18 04:06:16;;;;;;;61.50;44.30;;;;;;;3.47;100.00;96022.19;5044070;28;20194;-62
2022/03/18 04:09:02;;;;;;;56.53;41.83;;;;;;;3.33;100.00;96030.28;5048773;28;20202;-61
2022/03/18 04:11:48;;;;;;;57.97;44.57;;;;;;;3.46;100.00;96036.88;5044737;28;20563;-61
2022/03/18 04:14:34;;;;;;;58.90;42.90;;;;;;;3.58;100.00;96031.09;5046298;28;20198;-61
2022/03/18 04:17:22;;;;;;;59.30;43.23;;;;;;;3.35;100.00;96041.47;5044437;28;20641;-61
2022/03/18 04:20:11;;;;;;;59.50;43.23;;;;;;;3.54;100.00;96043.81;5031520;28;20693;-61
2022/03/18 04:22:57;;;;;;;58.27;42.40;;;;;;;3.46;100.00;96040.31;5032824;28;20190;-61
2022/03/18 04:25:43;;;;;;;55.53;40.33;;;;;;;3.50;100.00;96043.03;5035871;28;20254;-61
2022/03/18 04:28:28;;;;;;;61.07;41.40;;;;;;;3.60;100.00;96045.75;5017746;28;20293;-61
2022/03/18 04:31:14;;;;;;;60.80;41.50;;;;;;;3.43;100.00;96045.72;5033625;28;20580;-61
2022/03/18 04:34:01;;;;;;;62.50;43.13;;;;;;;3.39;100.00;96061.91;5051125;28;20191;-62
2022/03/18 04:36:47;;;;;;;59.00;43.13;;;;;;;3.31;100.00;96044.16;5053242;28;20221;-61
2022/03/18 04:39:33;;;;;;;61.67;42.90;;;;;;;3.45;100.00;96052.28;5048445;28;20804;-62
2022/03/18 04:42:19;;;;;;;58.07;43.80;;;;;;;3.61;100.00;96054.63;5047216;28;20683;-61
2022/03/18 04:45:06;;;;;;;62.40;43.33;;;;;;;3.55;100.00;96062.34;5042207;28;20203;-61
2022/03/18 04:47:52;;;;;;;58.73;43.13;;;;;;;3.42;100.00;96058.47;5043300;28;20696;-62
2022/03/18 04:50:37;;;;;;;58.23;42.13;;;;;;;3.49;100.00;96066.59;5045413;28;20221;-61
2022/03/18 04:53:24;;;;;;;55.00;41.60;;;;;;;3.52;100.00;96067.75;5045975;28;20190;-62
2022/03/18 04:57:15;;;;;;;56.33;40.83;;;;;;;3.40;100.00;96068.88;5025994;28;20229;-61
2022/03/18 04:59:16;;;;;;;55.93;40.37;;;;;;;3.47;100.00;96074.28;5041559;28;20284;-64
2022/03/18 05:02:02;;;;;;;52.57;40.40;;;;;;;3.39;100.00;96075.41;5017153;28;20749;-63
2022/03/18 05:04:48;;;;;;;55.23;41.57;;;;;;;3.49;100.00;96087.41;5050650;28;20224;-64
2022/03/18 05:07:35;;;;;;;54.10;39.23;;;;;;;3.60;100.00;96088.19;5050374;28;20186;-64
2022/03/18 05:10:22;;;;;;;55.87;40.43;;;;;;;3.54;100.00;96089.75;5052602;28;20665;-64
2022/03/18 05:13:08;;;;;;;51.60;38.20;;;;;;;3.67;100.00;96093.63;5055776;28;20684;-64
2022/03/18 05:15:55;;;;;;;56.47;41.10;;;;;;;3.72;100.00;96087.84;5044426;28;20225;-64
2022/03/18 05:18:42;;;;;;;53.50;41.03;;;;;;;3.72;100.00;96098.63;5050272;28;20194;-64
2022/03/18 05:21:28;;;;;;;55.93;41.60;;;;;;;3.52;100.00;96092.03;5050103;28;20206;-64
2022/03/18 05:24:14;;;;;;;56.17;41.70;;;;;;;3.34;100.00;96094.69;5050011;28;20201;-64
2022/03/18 05:27:00;;;;;;;53.97;40.90;;;;;;;3.49;100.00;96101.69;5038750;28;20244;-64
2022/03/18 05:29:46;;;;;;;58.03;39.57;;;;;;;3.38;100.00;96116.28;5050288;28;20206;-64
2022/03/18 05:32:33;;;;;;;57.37;41.40;;;;;;;3.61;100.00;96103.25;5051253;28;20652;-64
2022/03/18 05:35:20;;;;;;;50.33;38.67;;;;;;;3.46;100.00;96104.38;5042511;28;20206;-64
2022/03/18 05:38:06;;;;;;;54.73;40.30;;;;;;;3.51;100.00;96102.06;5049411;28;20198;-64
2022/03/18 05:40:53;;;;;;;67.27;40.93;;;;;;;3.53;100.00;96099.75;5031134;28;20288;-64
2022/03/18 05:43:39;;;;;;;58.57;41.63;;;;;;;3.67;100.00;96102.50;5049544;28;20195;-64
2022/03/18 05:46:25;;;;;;;52.83;40.47;;;;;;;3.57;100.00;96113.28;5047948;28;20202;-64
2022/03/18 05:49:11;;;;;;;52.27;39.77;;;;;;;3.54;100.00;96114.81;5038555;28;20302;-64
2022/03/18 05:51:57;;;;;;;57.13;41.13;;;;;;;3.86;100.00;96124.91;5035471;28;20202;-64
2022/03/18 05:54:43;;;;;;;54.93;41.23;;;;;;;3.92;100.00;96117.97;5049912;28;20191;-64
2022/03/18 05:57:30;;;;;;;54.93;40.43;;;;;;;3.97;100.00;96118.34;5044127;28;20218;-64
2022/03/18 06:00:16;;;;;;;54.40;41.40;;;;;;;4.06;100.00;96118.75;5047029;28;20302;-64
2022/03/18 06:03:02;;;;;;;53.43;40.07;;;;;;;4.09;100.00;96120.69;5055288;28;20193;-64
2022/03/18 06:05:49;;;;;;;55.47;40.27;;;;;;;4.26;100.00;96119.91;5058328;28;20190;-64
2022/03/18 06:11:49;;;;;;;51.20;38.30;;;;;;;4.50;100.00;96131.88;5047393;28;20964;-64
2022/03/18 06:14:35;;;;;;;50.87;38.50;;;;;;;4.58;100.00;96134.19;5035748;28;20293;-64
2022/03/18 06:17:21;;;;;;;55.07;40.77;;;;;;;4.69;100.00;96136.91;5048698;28;20726;-64
2022/03/18 06:20:08;;;;;;;53.07;40.43;;;;;;;4.59;100.00;96135.75;5032339;28;20210;-64
2022/03/18 06:22:54;;;;;;;53.10;39.07;;;;;;;4.76;100.00;96142.31;5042301;28;20661;-64
2022/03/18 06:25:41;;;;;;;58.67;37.70;;;;;;;4.76;100.00;96128.78;5049849;28;20186;-64
2022/03/18 06:28:28;;;;;;;57.20;37.13;;;;;;;4.86;100.00;96155.81;5023760;28;20266;-64
2022/03/18 06:31:14;;;;;;;49.57;37.83;;;;;;;4.76;100.00;96151.19;5049547;28;20676;-64
2022/03/18 06:34:00;;;;;;;56.77;39.83;;;;;;;4.76;100.00;96145.00;5051677;28;20187;-64
2022/03/18 06:36:46;;;;;;;51.57;38.57;;;;;;;4.81;100.00;96161.63;5058937;28;20681;-64
2022/03/18 06:39:34;;;;;;;56.73;38.90;;;;;;;4.80;100.00;96154.66;5032269;28;20729;-64
2022/03/18 06:42:20;;;;;;;48.87;36.83;;;;;;;4.80;100.00;96151.94;5049917;28;20688;-64
2022/03/18 06:45:06;;;;;;;51.57;38.10;;;;;;;5.02;100.00;96160.03;5050044;28;20273;-64
2022/03/18 06:47:52;;;;;;;53.30;37.93;;;;;;;5.06;100.00;96160.81;5026977;28;20244;-64
2022/03/18 06:50:38;;;;;;;50.90;36.33;;;;;;;5.04;100.00;96165.84;5009132;28;20215;-64
2022/03/18 06:53:24;;;;;;;47.60;34.83;;;;;;;5.02;100.00;96166.25;5050334;28;20197;-64
2022/03/18 06:56:12;;;;;;;46.63;34.60;;;;;;;5.15;100.00;96169.28;5048736;28;20221;-64
2022/03/18 06:58:59;;;;;;;48.50;36.80;;;;;;;5.17;100.00;96175.88;5048140;28;20194;-64
2022/03/18 07:01:45;;;;;;;50.20;37.23;;;;;;;5.25;100.00;96179.31;5034586;28;20196;-64
2022/03/18 07:04:31;;;;;;;46.47;36.30;;;;;;;5.39;100.00;96184.69;5049480;28;20569;-64
2022/03/18 07:07:17;;;;;;;41.50;33.57;;;;;;;5.37;100.00;96185.09;5042292;28;20222;-64
2022/03/18 07:10:03;;;;;;;42.40;32.27;;;;;;;5.44;100.00;96182.38;5046018;28;20246;-64
2022/03/18 07:12:49;;;;;;;41.83;32.80;;;;;;;5.52;100.00;96180.38;5034220;28;20194;-64
2022/03/18 07:15:35;;;;;;;41.80;33.10;;;;;;;5.59;100.00;96191.97;5049832;28;20269;-64
2022/03/18 07:18:21;;;;;;;40.97;31.57;;;;;;;5.50;100.00;96191.63;5043369;28;20182;-64
2022/03/18 07:21:07;;;;;;;45.43;33.27;;;;;;;5.66;100.00;96199.31;5041180;28;20368;-64
2022/03/18 07:23:53;;;;;;;40.20;31.43;;;;;;;5.71;100.00;96196.19;5052339;28;20197;-64
2022/03/18 07:26:39;;;;;;;39.40;29.67;;;;;;;5.59;100.00;96186.56;5057211;28;20232;-64
2022/03/18 07:29:25;;;;;;;41.60;31.63;;;;;;;5.88;100.00;96209.69;5051827;28;20213;-64
2022/03/18 07:32:15;;;;;;;42.50;33.13;;;;;;;6.01;100.00;96208.06;5044646;28;20202;-64
2022/03/18 07:35:01;;;;;;;41.63;29.73;;;;;;;5.78;100.00;96205.06;5029688;28;20221;-64
2022/03/18 07:37:48;;;;;;;40.07;31.07;;;;;;;5.75;100.00;96205.09;5018717;28;20737;-64
2022/03/18 07:40:34;;;;;;;43.43;32.43;;;;;;;5.82;100.00;96210.47;5026702;28;20309;-64
2022/03/18 07:43:20;;;;;;;39.40;30.47;;;;;;;5.73;100.00;96205.47;5029244;28;20214;-64
2022/03/18 07:46:06;;;;;;;37.90;30.17;;;;;;;5.64;100.00;96229.50;5034870;28;20327;-64
2022/03/18 07:48:51;;;;;;;43.50;31.03;;;;;;;5.74;100.00;96212.44;5047215;28;20190;-64
2022/03/18 07:51:37;;;;;;;44.00;31.33;;;;;;;5.83;100.00;96220.19;5045712;28;20253;-64
2022/03/18 07:54:23;;;;;;;46.53;32.07;;;;;;;5.91;100.00;96222.47;5048161;28;20201;-64
2022/03/18 07:57:09;;;;;;;46.70;31.17;;;;;;;6.00;100.00;96227.47;5033492;28;20221;-64
2022/03/18 07:59:55;;;;;;;40.17;31.03;;;;;;;6.03;100.00;96232.09;5048989;28;20307;-64
2022/03/18 08:02:42;;;;;;;41.57;30.73;;;;;;;6.01;100.00;96234.41;5035176;28;20202;-64
2022/03/18 08:05:28;;;;;;;42.83;29.90;;;;;;;5.89;100.00;96230.22;5067004;28;20591;-64
2022/03/18 08:08:14;;;;;;;36.93;30.63;;;;;;;6.13;100.00;96231.25;5027755;28;20260;-64
2022/03/18 08:11:00;;;;;;;37.93;30.93;;;;;;;6.30;100.00;96245.88;5046284;28;20648;-64
2022/03/18 08:13:49;;;;;;;41.77;32.00;;;;;;;6.34;100.00;96238.50;5039579;28;20190;-64
2022/03/18 08:16:35;;;;;;;43.00;31.23;;;;;;;6.51;100.00;96245.75;5053351;28;20230;-64
2022/03/18 08:19:21;;;;;;;41.53;30.30;;;;;;;6.56;100.00;96254.25;5045067;28;20217;-64
2022/03/18 08:22:07;;;;;;;37.83;29.43;;;;;;;6.71;100.00;96244.06;5042118;28;20580;-64
2022/03/18 08:24:53;;;;;;;46.20;30.00;;;;;;;6.67;100.00;96248.75;5034205;28;20187;-64
2022/03/18 08:27:39;;;;;;;36.33;29.10;;;;;;;6.59;100.00;96264.31;5052129;28;20190;-64
2022/03/18 08:30:25;;;;;;;38.10;28.80;;;;;;;6.78;100.00;96260.31;5035187;28;20218;-64
2022/03/18 08:33:11;;;;;;;37.40;27.87;;;;;;;6.78;100.00;96266.53;5051000;28;20750;-64
2022/03/18 08:35:57;;;;;;;38.47;29.27;;;;;;;6.84;100.00;96258.69;5050920;28;20210;-64
2022/03/18 08:38:43;;;;;;;37.37;28.37;;;;;;;7.06;100.00;96270.94;5044243;28;20259;-64
2022/03/18 08:41:29;;;;;;;37.87;29.30;;;;;;;7.14;100.00;96277.88;5032741;28;20190;-65
2022/03/18 08:44:19;;;;;;;38.73;28.60;;;;;;;7.26;100.00;96269.22;5045736;28;20661;-64
2022/03/18 08:47:05;;;;;;;36.23;28.37;;;;;;;7.34;100.00;96273.41;5031469;28;20190;-64
2022/03/18 08:49:51;;;;;;;37.53;27.20;;;;;;;7.59;100.00;96273.16;5050180;28;20212;-64
2022/03/18 08:52:37;;;;;;;36.53;26.80;;;;;;;7.90;99.04;96272.84;5049560;28;20719;-64
2022/03/18 08:55:25;;;;;;;32.17;26.40;;;;;;;7.93;92.55;96276.69;5051878;28;20539;-64
2022/03/18 08:58:10;;;;;;;34.93;26.80;;;;;;;8.10;92.28;96271.03;5039887;28;20203;-65
2022/03/18 09:00:56;;;;;;;30.63;25.13;;;;;;;8.40;89.74;96273.00;5050056;28;20316;-64
2022/03/18 09:03:42;;;;;;;36.30;26.20;;;;;;;8.54;89.70;96270.88;5051153;28;20678;-64
2022/03/18 09:06:28;;;;;;;31.73;24.73;;;;;;;8.56;88.73;96262.28;5036171;28;20194;-64
2022/03/18 09:09:14;;;;;;;36.50;24.30;;;;;;;8.70;85.85;96266.75;5039913;28;20301;-64
2022/03/18 09:12:00;;;;;;;32.73;23.67;;;;;;;8.64;84.35;96274.63;5049933;28;20198;-64
2022/03/18 09:14:46;;;;;;;29.77;23.43;;;;;;;8.69;81.86;96271.44;5047512;28;20627;-64
2022/03/18 09:17:32;;;;;;;36.23;24.13;;;;;;;9.10;79.69;96280.16;5041889;28;20243;-64
2022/03/18 09:20:18;;;;;;;31.37;22.17;;;;;;;9.08;76.87;96303.56;5049994;28;20237;-64
2022/03/18 09:23:04;;;;;;;29.63;23.37;;;;;;;9.16;73.98;96272.28;5047374;28;20670;-64
2022/03/18 09:25:51;;;;;;;33.97;24.60;;;;;;;9.49;73.64;96285.72;5039878;28;20186;-65
2022/03/18 09:28:37;;;;;;;36.47;23.53;;;;;;;9.65;71.56;96283.06;5043827;28;20238;-65
2022/03/18 09:31:23;;;;;;;30.97;22.57;;;;;;;9.95;70.35;96290.34;5040345;28;20198;-65
2022/03/18 09:34:09;;;;;;;29.50;22.70;;;;;;;10.01;68.63;96290.63;5031673;28;20551;-65
2022/03/18 09:36:57;;;;;;;29.70;21.20;;;;;;;10.15;69.32;96284.91;5050989;28;20355;-65
2022/03/18 09:39:42;;;;;;;35.73;20.97;;;;;;;10.36;67.37;96287.97;5030944;28;20231;-64
2022/03/18 09:42:29;;;;;;;28.67;20.70;;;;;;;10.35;63.59;96297.34;5032182;28;20524;-65
2022/03/18 09:45:15;;;;;;;26.17;20.60;;;;;;;10.33;63.09;96290.78;5063793;28;20197;-65
2022/03/18 09:48:03;;;;;;;25.80;19.83;;;;;;;10.64;61.20;96294.78;5048287;28;20554;-65
2022/03/18 09:50:50;;;;;;;27.23;20.47;;;;;;;10.31;62.94;96299.41;5038140;28;20214;-64
2022/03/18 09:53:36;;;;;;;24.90;19.40;;;;;;;10.56;61.47;96298.88;5051181;28;20194;-65
2022/03/18 09:56:21;;;;;;;28.83;20.20;;;;;;;10.70;59.83;96293.88;5049594;28;20268;-64
2022/03/18 09:59:08;;;;;;;25.33;20.57;;;;;;;11.03;60.09;96302.88;5049525;28;20233;-65
2022/03/18 10:02:21;;;;;;;61.60;28.97;;;;;;;11.10;58.43;96286.31;5044183;28;20190;-65
2022/03/18 10:05:13;;;;;;;42.77;26.07;;;;;;;10.73;57.71;96284.84;5047690;28;20225;-64
2022/03/18 10:07:59;;;;;;;24.00;18.77;;;;;;;10.55;57.48;96294.59;5032937;28;20236;-65
2022/03/18 10:10:46;;;;;;;22.03;18.50;;;;;;;10.60;59.25;96296.84;5043982;28;20729;-65
2022/03/18 10:13:52;;;;;;;28.13;21.73;;;;;;;10.65;60.57;96302.59;5047989;28;20190;-65
2022/03/18 10:16:42;;;;;;;30.63;18.43;;;;;;;10.68;58.31;96307.19;5038567;28;20218;-65
2022/03/18 10:19:28;;;;;;;30.87;18.23;;;;;;;10.45;57.58;96304.56;5049112;28;20222;-65
2022/03/18 10:22:17;;;;;;;27.13;18.70;;;;;;;10.44;57.07;96300.28;5044313;28;20259;-65
2022/03/18 10:25:04;;;;;;;30.20;19.37;;;;;;;10.37;58.24;96314.09;5030234;28;20191;-65
2022/03/18 10:27:49;;;;;;;30.47;19.73;;;;;;;10.61;56.04;96317.50;5028223;28;20183;-65
2022/03/18 10:30:36;;;;;;;23.43;17.33;;;;;;;10.59;57.70;96323.38;5040606;28;20229;-65
2022/03/18 10:37:04;;;;;;;26.13;17.90;;;;;;;10.80;56.31;96317.47;5043762;28;20276;-65
2022/03/18 10:39:50;;;;;;;20.60;16.93;;;;;;;10.61;53.97;96314.75;5041673;28;20214;-64
2022/03/18 10:42:36;;;;;;;24.33;17.90;;;;;;;10.81;53.35;96308.06;5033937;28;20273;-65
2022/03/18 10:45:22;;;;;;;23.53;18.70;;;;;;;10.94;53.39;96311.66;5030325;28;20210;-64
2022/03/18 10:48:15;;;;;;;24.90;18.83;;;;;;;11.06;54.03;96314.94;5028524;28;20194;-65
2022/03/18 10:51:07;;;;;;;24.83;18.97;;;;;;;11.37;54.23;96321.66;5037504;28;20214;-65
2022/03/18 10:53:57;;;;;;;26.43;19.17;;;;;;;11.35;54.17;96313.84;5035530;28;20545;-65
2022/03/18 10:56:57;;;;;;;23.50;19.83;;;;;;;11.61;55.03;96312.81;5047852;28;20621;-65
2022/03/18 10:59:43;;;;;;;25.47;17.60;;;;;;;11.62;52.45;96319.81;5043247;28;20705;-65
2022/03/18 11:02:29;;;;;;;21.27;16.43;;;;;;;11.04;53.01;96318.13;5046343;28;20256;-65
2022/03/18 11:05:19;;;;;;;27.63;18.70;;;;;;;11.43;54.58;96330.88;5050433;28;20198;-65
2022/03/18 11:08:10;;;;;;;25.30;18.27;;;;;;;11.29;53.79;96326.50;5041916;28;20199;-65
2022/03/18 11:11:17;;;;;;;25.17;18.97;;;;;;;10.83;53.25;96326.78;5035461;28;20226;-65
2022/03/18 11:14:09;;;;;;;26.40;18.97;;;;;;;10.85;54.68;96329.88;5015139;28;20664;-65
2022/03/18 11:16:55;;;;;;;24.00;18.10;;;;;;;11.00;53.58;96322.88;5047763;28;20214;-65
2022/03/18 11:19:44;;;;;;;22.50;18.33;;;;;;;11.71;54.73;96330.97;5048268;28;20642;-65
2022/03/18 11:22:33;;;;;;;21.57;17.33;;;;;;;11.64;52.24;96325.66;5045826;28;20187;-65
2022/03/18 11:25:20;;;;;;;26.33;18.17;;;;;;;11.68;52.40;96326.34;5049341;28;20252;-63
2022/03/18 11:28:07;;;;;;;26.40;17.73;;;;;;;12.14;53.31;96345.09;5035846;28;20193;-63
2022/03/18 11:31:07;;;;;;;22.83;17.80;;;;;;;11.34;52.15;96334.19;5034964;28;20285;-62
2022/03/18 11:34:09;;;;;;;27.33;19.17;;;;;;;11.17;53.48;96340.06;5047114;28;20694;-62
2022/03/18 11:37:09;;;;;;;25.27;17.90;;;;;;;11.06;52.55;96323.16;5033945;28;20276;-62
2022/03/18 11:40:31;;;;;;;22.07;17.17;;;;;;;11.05;51.73;96325.09;5034045;28;20214;-62
2022/03/18 11:43:29;;;;;;;22.17;17.73;;;;;;;10.77;52.79;96321.06;4934056;29;20281;-62
2022/03/18 11:46:16;;;;;;;19.87;16.57;;;;;;;10.40;52.29;96331.63;5043650;28;20240;-62
2022/03/18 11:49:06;;;;;;;23.33;18.23;;;;;;;10.40;52.77;96323.41;5033503;28;20190;-62
2022/03/18 11:51:59;;;;;;;21.43;17.43;;;;;;;10.53;52.78;96321.56;5040466;28;20202;-62
2022/03/18 11:55:00;;;;;;;20.40;16.43;;;;;;;10.80;52.46;96325.69;5018891;28;20217;-62
2022/03/18 11:57:46;;;;;;;21.00;16.07;;;;;;;10.38;51.74;96337.50;5042537;28;20241;-62
2022/03/18 12:00:32;;;;;;;32.77;18.53;;;;;;;10.37;51.48;96335.16;5032228;28;20249;-62
2022/03/18 12:03:23;;;;;;;26.70;17.57;;;;;;;10.40;51.11;96340.56;5030245;28;20208;-62
2022/03/18 12:06:08;;;;;;;21.83;17.17;;;;;;;10.44;52.00;96333.06;5027180;28;20197;-62
2022/03/18 12:08:55;;;;;;;21.90;16.33;;;;;;;10.77;50.95;96329.25;5033037;28;20194;-62
2022/03/18 12:11:41;;;;;;;25.03;16.97;;;;;;;11.03;51.52;96343.16;5033415;28;20202;-62
2022/03/18 12:14:27;;;;;;;22.57;17.53;;;;;;;10.84;51.02;96331.81;5029635;28;20198;-63
2022/03/18 12:17:13;;;;;;;24.73;18.00;;;;;;;10.78;50.88;96336.25;5047278;28;20713;-63
2022/03/18 12:20:00;;;;;;;22.60;16.90;;;;;;;10.56;51.41;96334.38;5038923;28;20222;-62
2022/03/18 12:22:47;;;;;;;22.57;17.03;;;;;;;10.66;51.76;96333.41;5032877;28;20689;-62
2022/03/18 12:25:36;;;;;;;28.83;18.63;;;;;;;10.93;51.43;96321.09;5047107;28;20197;-63
2022/03/18 12:28:22;;;;;;;25.07;17.37;;;;;;;10.91;51.62;96325.44;5048804;28;20226;-62
2022/03/18 12:31:15;;;;;;;24.80;17.83;;;;;;;11.00;51.63;96322.88;5032255;28;20340;-62
2022/03/18 12:34:05;;;;;;;26.60;18.50;;;;;;;11.15;51.87;96329.56;5041783;28;20237;-62
2022/03/18 12:36:51;;;;;;;21.80;18.23;;;;;;;11.60;50.80;96324.19;5027668;28;20306;-62
2022/03/18 12:39:37;;;;;;;20.97;17.73;;;;;;;11.76;50.58;96316.75;5047445;28;20214;-63
2022/03/18 12:42:23;;;;;;;22.27;17.77;;;;;;;11.95;49.67;96321.34;5049072;28;20223;-62
2022/03/18 12:45:09;;;;;;;22.00;15.57;;;;;;;12.20;49.81;96328.88;5046393;28;20190;-63
2022/03/18 12:48:01;;;;;;;24.57;17.90;;;;;;;12.35;49.78;96326.53;5041546;28;20558;-63
2022/03/18 12:50:52;;;;;;;20.67;17.30;;;;;;;12.50;49.09;96316.72;5030592;28;20213;-62
2022/03/18 12:53:46;;;;;;;22.67;16.83;;;;;;;11.69;48.93;96319.66;5049830;28;20195;-62
2022/03/18 12:56:40;;;;;;;23.60;17.43;;;;;;;11.52;50.76;96318.09;5016122;28;20215;-63
2022/03/18 12:59:26;;;;;;;24.27;16.43;;;;;;;11.77;50.94;96312.84;5043195;28;20207;-63
2022/03/18 13:02:12;;;;;;;24.43;17.07;;;;;;;11.61;50.61;96312.81;5050635;28;20221;-62